Time;durP1;ratioP1;P1;durP2;ratioP2;P2;SDS_P1;SDS_P2;PMS_P1;PMS_P2;Temp;Humidity;BMP_temperature;BMP_pressure;BME280_temperature;BME280_humidity;BME280_pressure;Samples;Min_cycle;Max_cycle;Signal;HPM_P1;HPM_P2
2022/04/12 00:01:03;;;;;;;;;;;;;;;17.28;44.73;101138.72;5078919;28;905;-61
2022/04/12 00:03:29;;;;;;;;;;;;;;;17.21;44.76;101132.66;5079725;28;1046;-60
2022/04/12 00:05:54;;;;;;;;;;;;;;;17.19;44.99;101136.75;5078894;28;877;-61
2022/04/12 00:08:20;;;;;;;;;;;;;;;17.29;44.47;101131.28;5079244;28;747;-61
2022/04/12 00:10:49;;;;;;;;;;;;;;;17.32;44.61;101136.28;5073718;28;883;-61
2022/04/12 00:13:14;;;;;;;;;;;;;;;17.24;45.01;101125.81;5078917;28;1440;-61
2022/04/12 00:15:40;;;;;;;;;;;;;;;17.26;44.52;101127.19;5078846;28;1906;-62
2022/04/12 00:20:49;;;;;;;;;;;;;;;17.31;44.59;101126.38;5076983;28;905;-63
2022/04/12 00:23:15;;;;;;;;;;;;;;;17.23;44.74;101119.47;5079048;28;814;-63
2022/04/12 00:25:44;;;;;;;;;;;;;;;17.22;44.69;101119.72;5068629;28;816;-63
2022/04/12 00:28:10;;;;;;;;;;;;;;;17.21;44.44;101110.69;5078893;28;1292;-63
2022/04/12 00:30:36;;;;;;;;;;;;;;;17.21;44.89;101110.69;5061017;28;810;-64
2022/04/12 00:33:01;;;;;;;;;;;;;;;17.28;44.89;101118.69;5072775;28;877;-63
2022/04/12 00:35:27;;;;;;;;;;;;;;;17.39;44.93;101112.09;5078340;28;857;-64
2022/04/12 00:37:52;;;;;;;;;;;;;;;17.43;44.96;101113.22;5078818;28;1963;-64
2022/04/12 00:40:18;;;;;;;;;;;;;;;17.47;44.84;101112.66;5076274;28;892;-64
2022/04/12 00:42:44;;;;;;;;;;;;;;;17.45;45.18;101121.19;5078835;28;788;-62
2022/04/12 00:45:09;;;;;;;;;;;;;;;17.50;44.99;101123.13;5078262;28;853;-63
2022/04/12 00:47:35;;;;;;;;;;;;;;;17.52;45.20;101132.75;5078647;28;779;-62
2022/04/12 00:50:00;;;;;;;;;;;;;;;17.54;45.11;101125.03;5077703;28;1039;-63
2022/04/12 00:52:26;;;;;;;;;;;;;;;17.57;45.06;101120.94;5078442;28;876;-64
2022/04/12 00:54:53;;;;;;;;;;;;;;;17.52;45.22;101118.19;5060020;28;765;-63
2022/04/12 00:57:18;;;;;;;;;;;;;;;17.55;45.15;101125.88;5072882;28;1906;-60
2022/04/12 00:59:44;;;;;;;;;;;;;;;17.58;45.19;101128.09;5060076;28;853;-61
2022/04/12 01:02:09;;;;;;;;;;;;;;;17.53;45.30;101122.56;5078510;28;750;-60
2022/04/12 01:04:35;;;;;;;;;;;;;;;17.59;45.40;101121.50;5060228;28;885;-61
2022/04/12 01:07:00;;;;;;;;;;;;;;;17.57;45.33;101113.53;5078351;28;857;-60
2022/04/12 01:09:26;;;;;;;;;;;;;;;17.59;45.07;101119.56;5074476;28;895;-61
2022/04/12 01:11:52;;;;;;;;;;;;;;;17.54;45.10;101119.53;5077204;28;896;-60
2022/04/12 01:14:17;;;;;;;;;;;;;;;17.49;45.23;101124.22;5077595;28;757;-61
2022/04/12 01:16:43;;;;;;;;;;;;;;;17.40;45.23;101113.75;5078016;28;1910;-61
2022/04/12 01:19:08;;;;;;;;;;;;;;;17.47;45.23;101123.66;5078198;28;937;-61
2022/04/12 01:21:42;;;;;;;;;;;;;;;17.48;45.14;101126.13;5077750;28;810;-61
2022/04/12 01:24:08;;;;;;;;;;;;;;;17.41;44.99;101115.41;5075748;28;880;-61
2022/04/12 01:26:33;;;;;;;;;;;;;;;17.49;44.89;101126.97;5076046;28;778;-61
2022/04/12 01:28:59;;;;;;;;;;;;;;;17.48;45.03;101125.31;5077625;28;770;-61
2022/04/12 01:31:25;;;;;;;;;;;;;;;17.44;45.24;101125.03;5077632;28;754;-61
2022/04/12 01:33:50;;;;;;;;;;;;;;;17.37;45.09;101125.28;5077382;28;841;-63
2022/04/12 01:36:16;;;;;;;;;;;;;;;17.39;44.81;101116.75;5075396;28;1906;-63
2022/04/12 01:38:41;;;;;;;;;;;;;;;17.47;44.83;101135.47;5077556;28;870;-63
2022/04/12 01:41:07;;;;;;;;;;;;;;;17.47;44.90;101140.97;5076706;28;761;-63
2022/04/12 01:43:32;;;;;;;;;;;;;;;17.49;45.12;101129.72;5068916;28;1050;-63
2022/04/12 01:45:57;;;;;;;;;;;;;;;17.51;44.86;101136.59;5077609;28;876;-63
2022/04/12 01:48:24;;;;;;;;;;;;;;;17.51;44.93;101127.53;5076747;28;1477;-64
2022/04/12 01:50:50;;;;;;;;;;;;;;;17.50;45.13;101134.97;5077417;28;981;-63
2022/04/12 01:53:15;;;;;;;;;;;;;;;17.52;44.95;101145.69;5075690;28;1720;-63
2022/04/12 01:55:41;;;;;;;;;;;;;;;17.51;44.99;101135.78;5070925;28;1967;-63
2022/04/12 01:58:06;;;;;;;;;;;;;;;17.54;45.23;101132.47;5070853;28;1550;-64
2022/04/12 02:00:32;;;;;;;;;;;;;;;17.56;45.14;101138.56;5070729;28;885;-65
2022/04/12 02:02:58;;;;;;;;;;;;;;;17.65;45.00;101136.91;5076765;28;910;-63
2022/04/12 02:05:23;;;;;;;;;;;;;;;17.64;45.05;101138.00;5076887;28;821;-63
2022/04/12 02:07:49;;;;;;;;;;;;;;;17.65;45.40;101128.66;5076910;28;786;-64
2022/04/12 02:10:14;;;;;;;;;;;;;;;17.69;45.04;101131.69;5076565;28;970;-62
2022/04/12 02:12:40;;;;;;;;;;;;;;;17.67;45.24;101137.47;5077072;28;1391;-62
2022/04/12 02:15:05;;;;;;;;;;;;;;;17.70;45.26;101142.41;5076237;28;851;-60
2022/04/12 02:17:31;;;;;;;;;;;;;;;17.69;45.53;101139.94;5076429;28;1913;-62
2022/04/12 02:19:56;;;;;;;;;;;;;;;17.75;45.26;101147.94;5076946;28;845;-62
2022/04/12 02:22:22;;;;;;;;;;;;;;;17.71;45.58;101141.34;5077267;28;770;-61
2022/04/12 02:24:47;;;;;;;;;;;;;;;17.67;45.62;101134.72;5074342;28;814;-63
2022/04/12 02:27:13;;;;;;;;;;;;;;;17.72;45.24;101145.72;5076238;28;835;-63
2022/04/12 02:29:38;;;;;;;;;;;;;;;17.66;45.62;101141.31;5077003;28;816;-64
2022/04/12 02:32:04;;;;;;;;;;;;;;;17.68;45.30;101141.03;5076332;28;908;-62
2022/04/12 02:34:29;;;;;;;;;;;;;;;17.73;45.29;101138.31;5076606;28;829;-64
2022/04/12 02:36:55;;;;;;;;;;;;;;;17.78;45.20;101141.88;5075268;28;1914;-63
2022/04/12 02:39:20;;;;;;;;;;;;;;;17.81;45.33;101136.94;5071414;28;1528;-64
2022/04/12 02:41:46;;;;;;;;;;;;;;;17.74;45.57;101134.44;5072812;28;793;-66
2022/04/12 02:44:11;;;;;;;;;;;;;;;17.62;45.17;101137.44;5076323;28;968;-64
2022/04/12 02:46:37;;;;;;;;;;;;;;;17.43;44.56;101142.63;5070135;28;1484;-67
2022/04/12 02:49:02;;;;;;;;;;;;;;;17.24;43.88;101143.09;5075136;28;1522;-66
2022/04/12 02:51:27;;;;;;;;;;;;;;;17.04;42.95;101143.84;5073886;28;1023;-63
2022/04/12 02:53:53;;;;;;;;;;;;;;;16.88;42.24;101144.84;5055052;28;1215;-60
2022/04/12 02:56:18;;;;;;;;;;;;;;;16.70;41.55;101146.09;5070516;28;1972;-61
2022/04/12 02:58:44;;;;;;;;;;;;;;;16.57;41.27;101150.16;5076274;28;951;-61
2022/04/12 03:01:09;;;;;;;;;;;;;;;16.47;41.13;101152.84;5076059;28;923;-59
2022/04/12 03:03:35;;;;;;;;;;;;;;;16.39;40.93;101148.66;5076158;28;996;-60
2022/04/12 03:06:00;;;;;;;;;;;;;;;16.43;41.01;101144.28;5075582;28;879;-60
2022/04/12 03:08:25;;;;;;;;;;;;;;;16.50;42.23;101149.56;5075818;28;940;-64
2022/04/12 03:10:51;;;;;;;;;;;;;;;16.66;43.27;101143.09;5073380;28;844;-62
2022/04/12 03:13:16;;;;;;;;;;;;;;;16.79;43.90;101139.03;5076149;28;814;-63
2022/04/12 03:15:42;;;;;;;;;;;;;;;16.94;44.50;101152.03;5075945;28;1997;-63
2022/04/12 03:18:07;;;;;;;;;;;;;;;17.01;44.89;101155.41;5075654;28;822;-62
2022/04/12 03:20:33;;;;;;;;;;;;;;;17.08;45.23;101155.13;5076051;28;779;-63
2022/04/12 03:22:58;;;;;;;;;;;;;;;17.19;45.46;101156.00;5076117;28;1057;-60
2022/04/12 03:25:24;;;;;;;;;;;;;;;17.22;45.81;101160.97;5074748;28;875;-62
2022/04/12 03:27:49;;;;;;;;;;;;;;;17.27;45.58;101166.47;5076145;28;809;-61
2022/04/12 03:30:15;;;;;;;;;;;;;;;17.28;45.63;101160.72;5075372;28;810;-62
2022/04/12 03:32:40;;;;;;;;;;;;;;;17.35;45.85;101165.97;5075905;28;859;-63
2022/04/12 03:35:06;;;;;;;;;;;;;;;17.38;46.05;101165.44;5075541;28;782;-63
2022/04/12 03:37:31;;;;;;;;;;;;;;;17.43;45.87;101176.44;5075669;28;1906;-61
2022/04/12 03:39:57;;;;;;;;;;;;;;;17.56;45.96;101171.53;5069556;28;1087;-61
2022/04/12 03:42:22;;;;;;;;;;;;;;;17.68;45.95;101174.03;5074027;28;793;-60
2022/04/12 03:44:48;;;;;;;;;;;;;;;17.56;46.10;101177.03;5070786;28;801;-62
2022/04/12 03:47:13;;;;;;;;;;;;;;;17.52;46.24;101181.44;5075890;28;833;-61
2022/04/12 03:49:39;;;;;;;;;;;;;;;17.61;46.41;101183.38;5075512;28;968;-62
2022/04/12 03:52:04;;;;;;;;;;;;;;;17.63;46.13;101183.09;5073409;28;1484;-65
2022/04/12 03:54:30;;;;;;;;;;;;;;;17.66;46.07;101187.25;5074001;28;1516;-62
2022/04/12 03:56:56;;;;;;;;;;;;;;;17.68;46.16;101190.53;5070740;28;1975;-62
2022/04/12 03:59:21;;;;;;;;;;;;;;;17.71;46.11;101195.50;5074569;28;1409;-65
2022/04/12 04:01:46;;;;;;;;;;;;;;;17.71;46.33;101192.75;5074890;28;1378;-66
2022/04/12 04:04:12;;;;;;;;;;;;;;;17.71;46.25;101195.50;5056965;28;848;-64
2022/04/12 04:06:38;;;;;;;;;;;;;;;17.75;46.08;101188.34;5075414;28;882;-64
2022/04/12 04:09:03;;;;;;;;;;;;;;;17.78;46.22;101183.16;5067633;28;831;-66
2022/04/12 04:11:28;;;;;;;;;;;;;;;17.82;46.13;101201.84;5075672;28;729;-67
2022/04/12 04:13:55;;;;;;;;;;;;;;;17.78;46.28;101193.31;5075477;28;794;-65
2022/04/12 04:16:20;;;;;;;;;;;;;;;17.81;45.98;101208.44;5075543;28;1902;-64
2022/04/12 04:18:46;;;;;;;;;;;;;;;17.57;45.53;101192.41;5075244;28;775;-65
2022/04/12 04:21:11;;;;;;;;;;;;;;;17.33;44.61;101195.63;5072170;28;774;-64
2022/04/12 04:23:37;;;;;;;;;;;;;;;17.17;43.50;101202.19;5076005;28;873;-67
2022/04/12 04:26:02;;;;;;;;;;;;;;;16.94;42.24;101204.22;5078332;28;966;-63
2022/04/12 04:28:30;;;;;;;;;;;;;;;16.78;41.22;101206.03;5079392;28;811;-67
2022/04/12 04:30:55;;;;;;;;;;;;;;;16.62;40.70;101212.50;5077660;28;1551;-65
2022/04/12 04:33:21;;;;;;;;;;;;;;;16.49;40.45;101222.00;5076609;28;1383;-63
2022/04/12 04:35:46;;;;;;;;;;;;;;;16.46;40.37;101231.59;5074355;28;1964;-64
2022/04/12 04:38:12;;;;;;;;;;;;;;;16.42;40.84;101228.56;5078969;28;864;-69
2022/04/12 04:40:37;;;;;;;;;;;;;;;16.51;41.55;101228.91;5077203;28;931;-67
2022/04/12 04:43:03;;;;;;;;;;;;;;;16.64;42.89;101230.38;5076483;28;1449;-63
2022/04/12 04:45:28;;;;;;;;;;;;;;;16.81;44.20;101240.38;5074946;28;1287;-66
2022/04/12 04:47:55;;;;;;;;;;;;;;;16.88;44.53;101239.06;5075353;28;1287;-64
2022/04/12 04:50:21;;;;;;;;;;;;;;;17.00;45.13;101235.31;5071861;28;1393;-65
2022/04/12 04:52:46;;;;;;;;;;;;;;;17.04;45.33;101234.53;5074585;28;1421;-64
2022/04/12 04:55:12;;;;;;;;;;;;;;;17.03;45.92;101234.78;5078037;28;1402;-65
2022/04/12 04:57:38;;;;;;;;;;;;;;;17.18;45.61;101236.78;5076606;28;1910;-66
2022/04/12 05:00:04;;;;;;;;;;;;;;;17.15;46.13;101231.81;5072475;28;1326;-65
2022/04/12 05:02:30;;;;;;;;;;;;;;;17.22;46.14;101238.75;5077397;28;1235;-66
2022/04/12 05:04:55;;;;;;;;;;;;;;;17.22;46.10;101237.91;5071255;28;1040;-65
2022/04/12 05:07:25;;;;;;;;;;;;;;;17.39;45.88;101249.56;5076949;28;1321;-65
2022/04/12 05:09:51;;;;;;;;;;;;;;;17.38;45.99;101236.91;5075135;28;1093;-62
2022/04/12 05:12:16;;;;;;;;;;;;;;;17.42;46.14;101240.78;5074536;28;1250;-66
2022/04/12 05:14:42;;;;;;;;;;;;;;;17.47;46.55;101252.88;5076900;28;1315;-66
2022/04/12 05:17:07;;;;;;;;;;;;;;;17.52;46.37;101252.91;5071518;28;1985;-65
2022/04/12 05:19:33;;;;;;;;;;;;;;;17.53;46.42;101254.53;5078199;28;842;-62
2022/04/12 05:21:58;;;;;;;;;;;;;;;17.60;46.73;101250.47;5077537;28;830;-62
2022/04/12 05:24:24;;;;;;;;;;;;;;;17.62;46.67;101255.69;5074933;28;1335;-63
2022/04/12 05:26:50;;;;;;;;;;;;;;;17.73;46.53;101262.06;5056472;28;1415;-64
2022/04/12 05:29:16;;;;;;;;;;;;;;;17.75;46.81;101257.13;5078262;28;824;-66
2022/04/12 05:31:41;;;;;;;;;;;;;;;17.71;46.73;101251.34;5077547;28;921;-65
2022/04/12 05:34:07;;;;;;;;;;;;;;;17.74;46.85;101263.69;5077656;28;904;-64
2022/04/12 05:36:32;;;;;;;;;;;;;;;17.71;46.68;101256.00;5077673;28;1901;-64
2022/04/12 05:38:57;;;;;;;;;;;;;;;17.48;45.99;101265.53;5074714;28;844;-63
2022/04/12 05:41:23;;;;;;;;;;;;;;;17.21;44.42;101270.06;5072521;28;1006;-64
2022/04/12 05:43:48;;;;;;;;;;;;;;;16.98;43.23;101259.47;5077715;28;734;-67
2022/04/12 05:46:14;;;;;;;;;;;;;;;16.80;42.52;101258.75;5077356;28;779;-62
2022/04/12 05:48:39;;;;;;;;;;;;;;;16.65;41.79;101262.22;5077805;28;813;-66
2022/04/12 05:51:05;;;;;;;;;;;;;;;16.47;41.11;101255.22;5076506;28;766;-66
2022/04/12 05:53:30;;;;;;;;;;;;;;;16.41;40.92;101254.34;5076741;28;1413;-66
2022/04/12 05:55:56;;;;;;;;;;;;;;;16.40;41.63;101254.59;5072383;28;1906;-66
2022/04/12 05:58:21;;;;;;;;;;;;;;;16.55;42.33;101264.88;5076256;28;826;-65
2022/04/12 06:00:47;;;;;;;;;;;;;;;16.68;43.32;101269.94;5075689;28;830;-65
2022/04/12 06:03:12;;;;;;;;;;;;;;;16.81;44.12;101276.91;5074999;28;794;-66
2022/04/12 06:05:38;;;;;;;;;;;;;;;16.86;44.56;101265.16;5077213;28;822;-65
2022/04/12 06:08:03;;;;;;;;;;;;;;;16.91;45.32;101254.22;5077543;28;921;-66
2022/04/12 06:10:29;;;;;;;;;;;;;;;16.99;45.46;101261.97;5075872;28;909;-66
2022/04/12 06:12:54;;;;;;;;;;;;;;;16.98;45.76;101260.28;5075831;28;1425;-64
2022/04/12 06:15:20;;;;;;;;;;;;;;;17.01;45.79;101265.28;5073498;28;1219;-66
2022/04/12 06:17:45;;;;;;;;;;;;;;;17.06;45.70;101264.47;5073766;28;1914;-66
2022/04/12 06:20:14;;;;;;;;;;;;;;;17.04;46.03;101267.50;5075202;28;1208;-66
2022/04/12 06:22:40;;;;;;;;;;;;;;;17.13;45.46;101267.81;5074941;28;1033;-65
2022/04/12 06:25:06;;;;;;;;;;;;;;;17.09;45.81;101272.19;5074656;28;1290;-65
2022/04/12 06:27:52;;;;;;;;;;;;;;;17.06;45.55;101262.56;5076088;28;1310;-64
2022/04/12 06:30:22;;;;;;;;;;;;;;;17.10;45.86;101268.34;5075867;28;1180;-67
2022/04/12 06:32:47;;;;;;;;;;;;;;;17.15;45.70;101264.81;5072179;28;1201;-65
2022/04/12 06:35:13;;;;;;;;;;;;;;;17.19;45.53;101268.69;5071726;28;1179;-66
2022/04/12 06:37:41;;;;;;;;;;;;;;;17.20;45.89;101262.91;5072971;28;1988;-69
2022/04/12 06:40:07;;;;;;;;;;;;;;;17.14;45.88;101265.88;5071791;28;1127;-63
2022/04/12 06:42:34;;;;;;;;;;;;;;;17.16;45.54;101275.53;5070282;28;1492;-65
2022/04/12 06:44:59;;;;;;;;;;;;;;;17.18;45.62;101275.25;5076636;28;838;-65
2022/04/12 06:47:25;;;;;;;;;;;;;;;17.18;45.38;101265.13;5072735;28;1195;-66
2022/04/12 06:49:50;;;;;;;;;;;;;;;17.21;45.82;101263.75;5076173;28;1001;-63
2022/04/12 06:52:16;;;;;;;;;;;;;;;17.27;45.73;101276.41;5076093;28;862;-64
2022/04/12 06:54:42;;;;;;;;;;;;;;;17.22;45.60;101270.88;5073923;28;769;-66
2022/04/12 06:57:07;;;;;;;;;;;;;;;17.20;45.88;101264.84;5076699;28;1909;-66
2022/04/12 06:59:33;;;;;;;;;;;;;;;17.34;45.85;101279.75;5075989;28;1433;-66
2022/04/12 07:01:58;;;;;;;;;;;;;;;17.36;45.71;101272.09;5075579;28;1393;-67
2022/04/12 07:04:24;;;;;;;;;;;;;;;17.38;46.17;101280.06;5075664;28;831;-66
2022/04/12 07:06:50;;;;;;;;;;;;;;;17.37;45.98;101279.22;5077687;28;801;-66
2022/04/12 07:09:19;;;;;;;;;;;;;;;17.40;45.92;101286.97;5073239;28;1033;-63
2022/04/12 07:11:44;;;;;;;;;;;;;;;17.35;45.93;101283.31;5072361;28;1233;-63
2022/04/12 07:14:10;;;;;;;;;;;;;;;17.32;45.82;101270.97;5075703;28;837;-65
2022/04/12 07:16:35;;;;;;;;;;;;;;;17.39;46.01;101279.78;5071641;28;1901;-63
2022/04/12 07:19:01;;;;;;;;;;;;;;;17.35;45.70;101275.91;5074638;28;849;-65
2022/04/12 07:21:29;;;;;;;;;;;;;;;17.37;45.83;101279.22;5075705;28;870;-64
2022/04/12 07:23:54;;;;;;;;;;;;;;;17.37;45.96;101273.72;5074375;28;1219;-67
2022/04/12 07:26:20;;;;;;;;;;;;;;;17.38;45.74;101266.31;5067912;28;1222;-60
2022/04/12 07:28:45;;;;;;;;;;;;;;;17.35;45.78;101275.91;5073612;28;1326;-60
2022/04/12 07:31:10;;;;;;;;;;;;;;;17.32;45.67;101270.13;5073318;28;1354;-64
2022/04/12 07:33:36;;;;;;;;;;;;;;;17.39;45.54;101265.19;5069956;28;1144;-64
2022/04/12 07:36:01;;;;;;;;;;;;;;;17.39;45.50;101265.19;5074745;28;1894;-62
2022/04/12 07:38:27;;;;;;;;;;;;;;;17.34;45.54;101271.50;5075554;28;849;-62
2022/04/12 07:40:53;;;;;;;;;;;;;;;17.31;45.43;101263.81;5072181;28;900;-64
2022/04/12 07:43:19;;;;;;;;;;;;;;;17.41;45.46;101266.59;5075596;28;920;-63
2022/04/12 07:45:44;;;;;;;;;;;;;;;17.37;45.65;101262.72;5073203;28;1233;-63
2022/04/12 07:48:10;;;;;;;;;;;;;;;17.41;45.42;101266.59;5074610;28;1239;-62
2022/04/12 07:50:35;;;;;;;;;;;;;;;17.45;45.47;101270.47;5072094;28;1045;-61
2022/04/12 07:53:00;;;;;;;;;;;;;;;17.42;45.42;101276.50;5075309;28;822;-65
2022/04/12 07:55:26;;;;;;;;;;;;;;;17.39;45.43;101266.06;5074439;28;875;-63
2022/04/12 07:57:51;;;;;;;;;;;;;;;17.39;45.29;101266.06;5070753;28;1917;-63
2022/04/12 08:00:17;;;;;;;;;;;;;;;17.39;45.37;101260.56;5078304;28;1157;-64
2022/04/12 08:02:42;;;;;;;;;;;;;;;17.53;45.48;101260.03;5079151;28;1544;-62
2022/04/12 08:05:08;;;;;;;;;;;;;;;17.55;45.63;101258.69;5079452;28;799;-64
2022/04/12 08:07:33;;;;;;;;;;;;;;;17.56;45.52;101254.03;5079432;28;877;-60
2022/04/12 08:09:59;;;;;;;;;;;;;;;17.63;45.78;101262.84;5078509;28;899;-64
2022/04/12 08:12:24;;;;;;;;;;;;;;;17.65;45.57;101263.41;5079119;28;905;-62
2022/04/12 08:14:50;;;;;;;;;;;;;;;17.60;45.72;101258.72;5079455;28;757;-68
2022/04/12 08:17:15;;;;;;;;;;;;;;;17.75;45.57;101265.38;5046405;28;1910;-65
2022/04/12 08:19:41;;;;;;;;;;;;;;;17.74;45.76;101263.69;5059242;28;794;-66
2022/04/12 08:22:08;;;;;;;;;;;;;;;17.79;45.71;101258.22;5058999;28;817;-66
2022/04/12 08:24:33;;;;;;;;;;;;;;;17.76;46.05;101261.53;5053546;28;897;-64
2022/04/12 08:26:59;;;;;;;;;;;;;;;17.83;45.97;101261.28;5055784;28;958;-63
2022/04/12 08:29:24;;;;;;;;;;;;;;;17.84;45.91;101263.75;5057538;28;807;-63
2022/04/12 08:31:49;;;;;;;;;;;;;;;17.74;45.84;101256.31;5051737;28;766;-64
2022/04/12 08:34:15;;;;;;;;;;;;;;;17.52;45.74;101255.66;5058648;28;985;-64
2022/04/12 08:36:41;;;;;;;;;;;;;;;17.34;44.39;101249.53;5058202;28;1977;-64
2022/04/12 08:39:06;;;;;;;;;;;;;;;17.19;44.01;101254.94;5057570;28;807;-64
2022/04/12 08:41:31;;;;;;;;;;;;;;;16.95;42.57;101249.84;5056822;28;718;-62
2022/04/12 08:43:57;;;;;;;;;;;;;;;16.73;41.46;101247.19;5058581;28;834;-64
2022/04/12 08:46:27;;;;;;;;;;;;;;;16.55;40.67;101252.00;5058687;28;746;-67
2022/04/12 08:48:53;;;;;;;;;;;;;;;16.35;40.25;101251.81;5054231;28;768;-64
2022/04/12 08:51:19;;;;;;;;;;;;;;;16.48;40.73;101256.03;5058410;28;1099;-60
2022/04/12 08:53:47;;;;;;;;;;;;;;;16.60;41.98;101253.94;5058968;28;1185;-62
2022/04/12 08:56:12;;;;;;;;;;;;;;;16.69;43.29;101246.88;5057594;28;1895;-64
2022/04/12 08:58:38;;;;;;;;;;;;;;;16.90;43.84;101249.78;5058014;28;962;-61
2022/04/12 09:01:03;;;;;;;;;;;;;;;16.98;44.69;101251.25;5054153;28;766;-62
2022/04/12 09:03:29;;;;;;;;;;;;;;;16.98;45.21;101235.56;5055305;28;958;-65
2022/04/12 09:05:54;;;;;;;;;;;;;;;17.10;45.41;101238.13;5036893;28;1132;-62
2022/04/12 09:08:30;;;;;;;;;;;;;;;17.15;45.20;101226.34;5057850;28;1327;-64
2022/04/12 09:10:59;;;;;;;;;;;;;;;17.09;45.62;101200.75;5050172;28;1521;-64
2022/04/12 09:13:25;;;;;;;;;;;;;;;17.34;45.76;101224.78;5057010;28;889;-64
2022/04/12 09:15:50;;;;;;;;;;;;;;;17.28;45.91;101225.88;5057929;28;1323;-64
2022/04/12 09:18:29;;;;;;;;;;;;;;;17.31;45.92;101217.06;5077622;28;758;-64
2022/04/12 09:20:56;;;;;;;;;;;;;;;17.34;45.88;101230.28;5078111;28;814;-64
2022/04/12 09:23:22;;;;;;;;;;;;;;;17.35;45.92;101223.69;5077116;28;1171;-64
2022/04/12 09:25:54;;;;;;;;;;;;;;;17.36;45.74;101225.34;5073521;28;1257;-65
2022/04/12 09:28:19;;;;;;;;;;;;;;;17.44;45.81;101224.81;5071210;28;1014;-64
2022/04/12 09:30:45;;;;;;;;;;;;;;;17.51;45.92;101226.50;5077772;28;837;-65
2022/04/12 09:33:10;;;;;;;;;;;;;;;17.43;46.00;101230.59;5077656;28;869;-64
2022/04/12 09:35:37;;;;;;;;;;;;;;;17.40;45.67;101225.63;5077859;28;880;-64
2022/04/12 09:38:03;;;;;;;;;;;;;;;17.38;45.89;101220.41;5077518;28;1984;-64
2022/04/12 09:40:28;;;;;;;;;;;;;;;17.44;45.73;101229.50;5056362;28;818;-64
2022/04/12 09:42:55;;;;;;;;;;;;;;;17.43;45.68;101234.19;5077440;28;1011;-65
2022/04/12 09:45:20;;;;;;;;;;;;;;;17.42;45.70;101232.53;5077440;28;822;-64
2022/04/12 09:47:46;;;;;;;;;;;;;;;17.49;45.71;101231.44;5076730;28;1361;-64
2022/04/12 09:50:12;;;;;;;;;;;;;;;17.43;45.88;101236.94;5056699;28;1152;-64
2022/04/12 09:52:37;;;;;;;;;;;;;;;17.44;45.83;101233.06;5070985;28;1345;-61
2022/04/12 09:55:04;;;;;;;;;;;;;;;17.52;45.79;101225.41;5071566;28;867;-64
2022/04/12 09:57:29;;;;;;;;;;;;;;;17.61;45.63;101223.78;5071020;28;1906;-61
2022/04/12 09:59:55;;;;;;;;;;;;;;;17.67;45.53;101217.22;5054123;28;897;-63
2022/04/12 10:02:24;;;;;;;;;;;;;;;17.64;45.67;101214.19;5076833;28;963;-64
2022/04/12 10:04:50;;;;;;;;;;;;;;;17.75;45.78;101224.09;5073623;28;895;-64
2022/04/12 10:07:16;;;;;;;;;;;;;;;17.74;45.51;101223.28;5076287;28;915;-64
2022/04/12 10:09:41;;;;;;;;;;;;;;;17.70;45.64;101224.94;5054418;28;895;-62
2022/04/12 10:12:07;;;;;;;;;;;;;;;17.67;45.63;101219.97;5076894;28;805;-64
2022/04/12 10:14:32;;;;;;;;;;;;;;;17.65;45.60;101235.91;5058879;28;1149;-63
2022/04/12 10:16:58;;;;;;;;;;;;;;;17.69;45.36;101245.28;5057941;28;1909;-64
2022/04/12 10:19:23;;;;;;;;;;;;;;;17.61;45.79;101237.53;5070414;28;892;-63
2022/04/12 10:21:49;;;;;;;;;;;;;;;17.60;45.35;101244.16;5075785;28;826;-63
2022/04/12 10:24:14;;;;;;;;;;;;;;;17.56;45.54;101254.03;5077721;28;862;-58
2022/04/12 10:26:39;;;;;;;;;;;;;;;17.53;45.46;101263.66;5076530;28;875;-61
2022/04/12 10:29:05;;;;;;;;;;;;;;;17.49;45.28;101270.78;5076740;28;770;-66
2022/04/12 10:31:31;;;;;;;;;;;;;;;17.41;45.05;101269.34;5067603;28;949;-65
2022/04/12 10:34:09;;;;;;;;;;;;;;;17.33;44.70;101258.84;5076332;28;896;-65
2022/04/12 10:36:53;;;;;;;;;;;;;;;17.20;44.20;101245.59;5071113;28;1910;-67
2022/04/12 10:39:19;;;;;;;;;;;;;;;17.13;43.79;101239.53;5075600;28;846;-66
2022/04/12 10:41:47;;;;;;;;;;;;;;;17.05;43.50;101230.66;5076328;28;797;-65
2022/04/12 10:44:19;;;;;;;;;;;;;;;16.97;43.81;101230.34;5053333;28;889;-65
2022/04/12 10:46:49;;;;;;;;;;;;;;;17.02;43.28;101227.63;5075497;28;1346;-66
2022/04/12 10:49:18;;;;;;;;;;;;;;;16.97;43.24;101239.44;5071378;28;1398;-65
2022/04/12 10:51:46;;;;;;;;;;;;;;;16.98;43.30;101243.81;5055377;28;1228;-62
2022/04/12 10:54:30;;;;;;;;;;;;;;;16.95;43.43;101243.53;5075539;28;1405;-64
2022/04/12 10:57:31;;;;;;;;;;;;;;;17.00;43.84;101241.66;5072486;28;1906;-66
2022/04/12 10:59:56;;;;;;;;;;;;;;;17.04;44.19;101248.25;4981053;28;1484;-62
2022/04/12 11:02:26;;;;;;;;;;;;;;;17.04;44.20;101253.75;5054174;28;1097;-64
2022/04/12 11:04:52;;;;;;;;;;;;;;;17.06;44.43;101257.06;5057158;28;1065;-63
2022/04/12 11:07:30;;;;;;;;;;;;;;;17.04;44.21;101258.41;5059588;28;963;-63
2022/04/12 11:10:18;;;;;;;;;;;;;;;17.04;44.47;101270.25;5067736;28;1681;-63
2022/04/12 11:12:43;;;;;;;;;;;;;;;17.00;44.60;101268.28;5066456;28;1438;-63
2022/04/12 11:15:21;;;;;;;;;;;;;;;16.98;43.92;101270.47;5073364;28;1604;-63
2022/04/12 11:17:47;;;;;;;;;;;;;;;16.90;44.11;101269.03;5072560;28;1972;-63
2022/04/12 11:20:22;;;;;;;;;;;;;;;16.90;43.92;101269.88;5075968;28;1366;-63
2022/04/12 11:22:56;;;;;;;;;;;;;;;16.85;43.97;101258.81;5073343;28;915;-63
2022/04/12 11:25:22;;;;;;;;;;;;;;;16.90;43.73;101247.06;5068513;28;823;-68
2022/04/12 11:27:54;;;;;;;;;;;;;;;16.86;43.81;101237.69;5076250;28;854;-63
2022/04/12 11:30:20;;;;;;;;;;;;;;;16.81;43.60;101234.88;5076073;28;801;-63
2022/04/12 11:32:45;;;;;;;;;;;;;;;16.83;43.83;101229.94;5076641;28;1028;-62
2022/04/12 11:35:10;;;;;;;;;;;;;;;16.81;44.06;101230.22;5074614;28;777;-62
2022/04/12 11:37:39;;;;;;;;;;;;;;;16.95;43.69;101236.09;5079812;28;1986;-62
2022/04/12 11:40:05;;;;;;;;;;;;;;;16.96;44.10;101226.78;5072529;28;895;-62
2022/04/12 11:42:30;;;;;;;;;;;;;;;17.05;44.27;101246.34;5080052;28;754;-65
2022/04/12 11:44:57;;;;;;;;;;;;;;;17.08;44.32;101249.38;5079223;28;1112;-60
2022/04/12 11:47:26;;;;;;;;;;;;;;;17.12;44.64;101255.16;5075454;28;794;-61
2022/04/12 11:49:52;;;;;;;;;;;;;;;17.27;44.78;101262.69;5079112;28;1005;-62
2022/04/12 11:52:17;;;;;;;;;;;;;;;17.30;44.88;101256.66;5079611;28;899;-63
2022/04/12 11:54:45;;;;;;;;;;;;;;;17.41;45.16;101260.28;5056596;28;877;-62
2022/04/12 11:57:11;;;;;;;;;;;;;;;17.39;45.40;101255.06;5078698;28;1985;-61
2022/04/12 11:59:46;;;;;;;;;;;;;;;17.37;45.29;101234.41;5073801;28;1590;-64
2022/04/12 12:02:12;;;;;;;;;;;;;;;17.37;45.18;101229.75;5061243;28;901;-61
2022/04/12 12:04:48;;;;;;;;;;;;;;;17.35;45.27;101222.84;5078364;28;1421;-63
2022/04/12 12:07:14;;;;;;;;;;;;;;;17.41;45.29;101219.03;5079092;28;1362;-63
2022/04/12 12:09:49;;;;;;;;;;;;;;;17.34;45.26;101208.28;5078374;28;1394;-62
2022/04/12 12:12:16;;;;;;;;;;;;;;;17.31;45.38;101202.53;5076481;28;1463;-61
2022/04/12 12:14:41;;;;;;;;;;;;;;;17.27;45.52;101199.47;5061066;28;1399;-60
2022/04/12 12:17:08;;;;;;;;;;;;;;;17.28;45.38;101188.19;5078603;28;2000;-61
2022/04/12 12:19:38;;;;;;;;;;;;;;;17.34;45.29;101186.28;5076158;28;1191;-61
2022/04/12 12:22:05;;;;;;;;;;;;;;;17.27;45.08;101169.22;5070380;28;1180;-61
2022/04/12 12:24:34;;;;;;;;;;;;;;;17.33;45.17;101170.91;5073017;28;1175;-61
2022/04/12 12:27:00;;;;;;;;;;;;;;;17.33;45.00;101168.16;5070728;28;1199;-59
2022/04/12 12:29:26;;;;;;;;;;;;;;;17.33;45.21;101167.34;5068330;28;1266;-59
2022/04/12 12:31:54;;;;;;;;;;;;;;;17.26;45.26;101162.06;5069689;28;1228;-59
2022/04/12 12:34:29;;;;;;;;;;;;;;;17.35;44.81;101159.63;5069690;28;1176;-60
2022/04/12 12:36:54;;;;;;;;;;;;;;;17.35;45.27;101157.72;5052806;28;1949;-60
2022/04/12 12:39:20;;;;;;;;;;;;;;;17.36;45.11;101158.53;5073895;28;1184;-62
2022/04/12 12:41:45;;;;;;;;;;;;;;;17.43;45.18;101157.22;5074114;28;873;-60
2022/04/12 12:44:10;;;;;;;;;;;;;;;17.43;45.07;101161.84;5074009;28;1464;-62
2022/04/12 12:46:37;;;;;;;;;;;;;;;17.43;45.12;101167.34;5077059;28;1215;-62
2022/04/12 12:49:06;;;;;;;;;;;;;;;17.51;45.26;101169.59;5078443;28;1343;-63
2022/04/12 12:51:32;;;;;;;;;;;;;;;17.43;45.08;101165.44;5077349;28;1320;-62